createdAt,value
2019-01-23T00:01:16.088Z,318.10
2019-01-23T00:03:53.021Z,268.75
2019-01-23T00:06:30.089Z,295.88
2019-01-23T00:09:07.770Z,283.70
2019-01-23T00:11:44.663Z,279.77
2019-01-23T00:14:21.372Z,283.38
2019-01-23T00:16:58.333Z,295.50
2019-01-23T00:19:35.947Z,296.98
2019-01-23T00:22:12.686Z,307.00
2019-01-23T00:24:49.548Z,296.05
2019-01-23T00:27:27.362Z,271.77
2019-01-23T00:30:10.940Z,256.60
2019-01-23T00:32:47.692Z,250.13
2019-01-23T00:35:24.668Z,234.43
2019-01-23T00:38:01.516Z,238.87
2019-01-23T00:40:38.424Z,249.52
2019-01-23T00:43:15.211Z,234.20
2019-01-23T00:45:52.123Z,231.78
2019-01-23T00:48:28.887Z,232.37
2019-01-23T00:51:05.712Z,232.98
2019-01-23T00:53:42.635Z,225.55
2019-01-23T00:56:19.487Z,246.93
2019-01-23T00:58:56.358Z,235.32
2019-01-23T01:01:33.169Z,246.32
2019-01-23T01:04:10.914Z,221.77
2019-01-23T01:06:47.811Z,199.50
2019-01-23T01:09:25.844Z,227.75
2019-01-23T01:12:02.524Z,221.53
2019-01-23T01:14:39.392Z,226.67
2019-01-23T01:17:16.135Z,230.87
2019-01-23T01:19:53.054Z,235.82
2019-01-23T01:22:29.753Z,226.60
2019-01-23T01:25:14.194Z,213.52
2019-01-23T01:27:50.923Z,231.00
2019-01-23T01:30:28.919Z,199.95
2019-01-23T01:33:05.620Z,207.70
2019-01-23T01:35:44.848Z,220.12
2019-01-23T01:38:21.688Z,206.57
2019-01-23T01:40:58.597Z,208.85
2019-01-23T01:43:35.422Z,213.75
2019-01-23T01:46:13.243Z,206.28
2019-01-23T01:48:50.583Z,202.47
2019-01-23T01:51:27.302Z,209.77
2019-01-23T01:54:04.194Z,207.37
2019-01-23T01:56:41.344Z,195.68
2019-01-23T01:59:18.275Z,204.95
2019-01-23T02:01:55.973Z,189.10
2019-01-23T02:04:32.985Z,195.82
2019-01-23T02:07:09.762Z,215.47
2019-01-23T02:09:47.902Z,220.93
2019-01-23T02:12:24.759Z,213.12
2019-01-23T02:15:02.760Z,214.42
2019-01-23T02:17:40.872Z,202.95
2019-01-23T02:20:20.950Z,232.47
2019-01-23T02:22:57.702Z,212.70
2019-01-23T02:25:34.638Z,191.43
2019-01-23T02:28:11.557Z,196.87
2019-01-23T02:30:48.302Z,202.70
2019-01-23T02:33:25.566Z,198.15
2019-01-23T02:36:02.671Z,201.70
2019-01-23T02:38:39.664Z,227.13
2019-01-23T02:41:16.356Z,198.95
2019-01-23T02:43:53.110Z,208.70
2019-01-23T02:46:30.036Z,194.90
2019-01-23T02:49:06.926Z,209.52
2019-01-23T02:51:43.601Z,189.43
2019-01-23T02:54:21.259Z,197.95
2019-01-23T02:56:58.181Z,179.97
2019-01-23T02:59:34.937Z,213.20
2019-01-23T03:02:11.831Z,225.05
2019-01-23T03:04:48.855Z,221.75
2019-01-23T03:07:25.562Z,225.78
2019-01-23T03:10:03.672Z,219.22
2019-01-23T03:12:40.532Z,204.80
2019-01-23T03:15:18.378Z,174.10
2019-01-23T03:17:55.065Z,157.05
2019-01-23T03:20:31.830Z,164.70
2019-01-23T03:23:08.693Z,167.68
2019-01-23T03:25:47.464Z,153.05
2019-01-23T03:28:25.232Z,163.57
2019-01-23T03:31:02.211Z,145.20
2019-01-23T03:33:39.075Z,147.68
2019-01-23T03:36:15.922Z,152.93
2019-01-23T03:38:52.647Z,154.75
2019-01-23T03:41:29.522Z,137.00
2019-01-23T03:44:06.596Z,151.50
2019-01-23T03:46:43.507Z,159.70
2019-01-23T03:49:21.481Z,132.78
2019-01-23T03:51:58.349Z,120.97
2019-01-23T03:54:35.136Z,136.50
2019-01-23T03:57:12.016Z,125.30
2019-01-23T03:59:49.709Z,141.37
2019-01-23T04:02:26.590Z,129.42
2019-01-23T04:05:03.809Z,127.25
2019-01-23T04:07:40.531Z,120.80
2019-01-23T04:10:18.715Z,131.72
2019-01-23T04:12:55.610Z,125.27
2019-01-23T04:15:33.398Z,123.33
2019-01-23T04:18:11.446Z,128.97
2019-01-23T04:20:48.469Z,126.58
2019-01-23T04:23:25.440Z,136.62
2019-01-23T04:26:05.167Z,140.10
2019-01-23T04:28:43.057Z,142.98
2019-01-23T04:31:19.814Z,132.18
2019-01-23T04:33:56.567Z,123.00
2019-01-23T04:36:33.610Z,119.05
2019-01-23T04:39:10.415Z,117.57
2019-01-23T04:41:48.084Z,127.05
2019-01-23T04:44:24.966Z,125.40
2019-01-23T04:47:01.837Z,128.78
2019-01-23T04:49:38.741Z,133.45
2019-01-23T04:52:17.184Z,133.78
2019-01-23T04:54:55.070Z,131.07
2019-01-23T04:57:31.742Z,133.50
2019-01-23T05:00:14.077Z,133.18
2019-01-23T05:02:50.905Z,133.45
2019-01-23T05:05:28.813Z,125.33
2019-01-23T05:08:05.683Z,130.60
2019-01-23T05:10:42.826Z,127.45
2019-01-23T05:13:19.625Z,121.42
2019-01-23T05:15:56.773Z,128.65
2019-01-23T05:18:33.618Z,122.62
2019-01-23T05:21:10.785Z,133.43
2019-01-23T05:23:47.478Z,124.95
2019-01-23T05:26:24.647Z,134.07
2019-01-23T05:29:01.426Z,129.90
2019-01-23T05:31:38.401Z,124.72
2019-01-23T05:34:15.096Z,140.52
2019-01-23T05:36:52.165Z,138.22
2019-01-23T05:39:29.044Z,168.32
2019-01-23T05:42:05.996Z,137.50
2019-01-23T05:44:43.644Z,128.23
2019-01-23T05:47:20.574Z,128.05
2019-01-23T05:49:58.246Z,118.87
2019-01-23T05:52:35.102Z,151.65
2019-01-23T05:55:13.415Z,151.85
2019-01-23T05:57:50.613Z,128.75
2019-01-23T06:00:28.225Z,131.52
2019-01-23T06:03:05.031Z,140.32
2019-01-23T06:05:41.861Z,207.10
2019-01-23T06:08:31.228Z,174.45
2019-01-23T06:11:26.842Z,142.98
2019-01-23T06:14:22.319Z,121.07
2019-01-23T06:17:16.866Z,139.70
2019-01-23T06:20:22.084Z,143.47
2019-01-23T06:23:16.688Z,226.30
2019-01-23T06:26:11.446Z,343.33
2019-01-23T06:29:05.717Z,384.00
2019-01-23T06:32:00.294Z,368.85
2019-01-23T06:34:55.064Z,173.02
2019-01-23T06:37:49.581Z,142.22
2019-01-23T06:40:44.049Z,186.65
2019-01-23T06:43:38.436Z,168.07
2019-01-23T06:46:32.955Z,198.10
2019-01-23T06:49:27.362Z,216.10
2019-01-23T06:52:21.986Z,261.18
2019-01-23T06:55:16.542Z,187.77
2019-01-23T06:58:10.873Z,182.93
2019-01-23T07:01:05.382Z,163.43
2019-01-23T07:03:59.663Z,155.25
2019-01-23T07:06:54.256Z,160.82
2019-01-23T07:09:48.747Z,157.12
2019-01-23T07:12:43.349Z,146.32
2019-01-23T07:15:37.941Z,155.65
2019-01-23T07:18:32.839Z,139.20
2019-01-23T07:21:27.631Z,143.87
2019-01-23T07:24:21.918Z,146.68
2019-01-23T07:27:16.407Z,142.03
2019-01-23T07:30:27.288Z,156.07
2019-01-23T07:33:21.990Z,149.65
2019-01-23T07:36:16.583Z,167.87
2019-01-23T07:39:11.067Z,160.05
2019-01-23T07:42:05.557Z,156.72
2019-01-23T07:45:00.463Z,184.90
2019-01-23T07:47:55.257Z,139.97
2019-01-23T07:50:32.334Z,140.57
2019-01-23T07:53:09.331Z,163.03
2019-01-23T07:55:46.410Z,438.77
2019-01-23T07:58:23.379Z,336.95
2019-01-23T08:01:00.371Z,221.00
2019-01-23T08:03:37.340Z,173.78
2019-01-23T08:06:14.891Z,149.82
2019-01-23T08:08:51.611Z,141.22
2019-01-23T08:11:28.595Z,150.53
2019-01-23T08:14:05.680Z,140.10
2019-01-23T08:16:42.698Z,140.90
2019-01-23T08:19:19.528Z,128.65
2019-01-23T08:21:56.617Z,125.62
2019-01-23T08:24:33.607Z,128.47
2019-01-23T08:27:10.995Z,136.68
2019-01-23T08:29:47.873Z,128.75
2019-01-23T08:32:24.635Z,112.17
2019-01-23T08:35:01.628Z,101.85
2019-01-23T08:37:38.393Z,110.45
2019-01-23T08:40:17.459Z,107.75
2019-01-23T08:42:54.425Z,122.45
2019-01-23T08:45:31.483Z,100.80
2019-01-23T08:48:08.674Z,103.58
2019-01-23T08:50:45.553Z,101.42
2019-01-23T08:53:22.421Z,93.27
2019-01-23T08:55:59.717Z,102.45
2019-01-23T08:58:36.707Z,132.75
2019-01-23T09:01:13.572Z,136.35
2019-01-23T09:03:50.455Z,119.75
2019-01-23T09:06:27.431Z,104.85
2019-01-23T09:09:06.367Z,115.30
2019-01-23T09:11:43.344Z,123.10
2019-01-23T09:14:20.628Z,88.75
2019-01-23T09:16:57.506Z,106.52
2019-01-23T09:19:34.276Z,126.95
2019-01-23T09:22:11.053Z,112.10
2019-01-23T09:24:48.453Z,103.50
2019-01-23T09:27:25.215Z,89.72
2019-01-23T09:30:02.216Z,120.40
2019-01-23T09:33:06.530Z,112.47
2019-01-23T09:36:03.161Z,93.30
2019-01-23T09:39:32.884Z,84.83
2019-01-23T09:42:35.156Z,93.35
2019-01-23T09:45:42.246Z,91.70
2019-01-23T09:48:29.565Z,101.38
2019-01-23T09:51:39.632Z,102.67
2019-01-23T09:54:16.712Z,109.10
2019-01-23T09:56:53.785Z,105.10
2019-01-23T09:59:30.863Z,101.95
2019-01-23T10:02:07.738Z,96.10
2019-01-23T10:04:44.835Z,100.90
2019-01-23T10:07:22.928Z,94.67
2019-01-23T10:09:59.911Z,88.62
2019-01-23T10:12:36.688Z,90.17
2019-01-23T10:15:18.979Z,83.50
2019-01-23T10:17:56.187Z,100.50
2019-01-23T10:20:33.062Z,137.25
2019-01-23T10:23:09.832Z,203.80
2019-01-23T10:25:56.851Z,150.12
2019-01-23T10:28:33.728Z,90.22
2019-01-23T10:31:10.600Z,103.50
2019-01-23T10:33:48.518Z,99.70
2019-01-23T10:36:25.808Z,89.17
2019-01-23T10:39:02.774Z,90.03
2019-01-23T10:41:41.352Z,93.78
2019-01-23T10:44:18.270Z,99.62
2019-01-23T10:46:55.356Z,94.13
2019-01-23T10:49:32.130Z,113.52
2019-01-23T10:52:08.913Z,106.15
2019-01-23T10:54:45.994Z,110.97
2019-01-23T10:57:22.971Z,113.72
2019-01-23T10:59:59.844Z,92.90
2019-01-23T11:02:36.782Z,93.97
2019-01-23T11:05:18.318Z,105.60
2019-01-23T11:07:55.300Z,107.27
2019-01-23T11:10:32.343Z,101.27
2019-01-23T11:13:10.284Z,105.45
2019-01-23T11:15:47.360Z,107.35
2019-01-23T11:18:24.444Z,116.50
2019-01-23T11:21:01.222Z,129.30
2019-01-23T11:23:38.108Z,92.05
2019-01-23T11:26:16.103Z,92.53
2019-01-23T11:28:52.880Z,84.40
2019-01-23T11:31:29.857Z,91.17
2019-01-23T11:34:07.059Z,104.00
2019-01-23T11:36:44.020Z,79.77
2019-01-23T11:39:21.009Z,88.78
2019-01-23T11:41:57.979Z,75.40
2019-01-23T11:44:34.869Z,82.90
2019-01-23T11:47:11.734Z,95.53
2019-01-23T11:49:48.570Z,82.53
2019-01-23T11:52:25.605Z,90.10
2019-01-23T11:55:02.484Z,73.00
2019-01-23T11:57:39.658Z,81.78
2019-01-23T12:00:19.822Z,81.97
2019-01-23T12:02:56.689Z,79.80
2019-01-23T12:05:34.797Z,84.72
2019-01-23T12:08:11.571Z,80.77
2019-01-23T12:10:48.452Z,79.22
2019-01-23T12:13:25.534Z,78.72
2019-01-23T12:16:02.415Z,76.30
2019-01-23T12:18:39.190Z,80.30
2019-01-23T12:21:15.962Z,77.40
2019-01-23T12:23:58.210Z,99.50
2019-01-23T12:26:31.572Z,81.10
2019-01-23T12:29:08.437Z,70.10
2019-01-23T12:31:45.646Z,70.08
2019-01-23T12:34:22.711Z,65.85
2019-01-23T12:36:59.901Z,68.97
2019-01-23T12:39:37.084Z,72.87
2019-01-23T12:42:14.167Z,74.80
2019-01-23T12:44:51.146Z,59.75
2019-01-23T12:47:28.231Z,67.27
2019-01-23T12:50:11.006Z,67.58
2019-01-23T12:52:47.847Z,72.08
2019-01-23T12:55:24.811Z,76.85
2019-01-23T12:58:01.675Z,72.40
2019-01-23T13:00:38.462Z,74.10
2019-01-23T13:03:15.329Z,75.37
2019-01-23T13:05:52.322Z,72.15
2019-01-23T13:08:29.198Z,72.50
2019-01-23T13:11:05.964Z,70.08
2019-01-23T13:13:42.841Z,68.00
2019-01-23T13:16:20.034Z,72.30
2019-01-23T13:18:57.172Z,72.60
2019-01-23T13:21:33.884Z,76.37
2019-01-23T13:24:10.662Z,76.53
2019-01-23T13:26:47.743Z,80.10
2019-01-23T13:29:24.627Z,86.82
2019-01-23T13:32:01.499Z,72.12
2019-01-23T13:34:38.690Z,75.30
2019-01-23T13:37:15.670Z,69.97
2019-01-23T13:39:52.540Z,69.70
2019-01-23T13:42:30.043Z,65.92
2019-01-23T13:45:11.318Z,66.77
2019-01-23T13:47:48.295Z,63.87
2019-01-23T13:50:25.277Z,67.70
2019-01-23T13:53:02.256Z,68.83
2019-01-23T13:55:39.345Z,77.32
2019-01-23T13:58:16.214Z,98.67
2019-01-23T14:00:54.122Z,63.78
2019-01-23T14:03:31.012Z,83.72
2019-01-23T14:06:08.080Z,342.57
2019-01-23T14:08:44.958Z,348.00
2019-01-23T14:11:21.953Z,227.00
2019-01-23T14:13:58.831Z,118.33
2019-01-23T14:16:35.799Z,122.65
2019-01-23T14:19:12.784Z,113.62
2019-01-23T14:21:49.869Z,169.40
2019-01-23T14:24:27.670Z,119.20
2019-01-23T14:27:04.960Z,108.10
2019-01-23T14:29:42.079Z,123.70
2019-01-23T14:32:19.523Z,155.75
2019-01-23T14:34:56.505Z,100.40
2019-01-23T14:37:33.486Z,125.40
2019-01-23T14:40:11.394Z,121.00
2019-01-23T14:42:48.573Z,175.75
2019-01-23T14:45:25.753Z,126.12
2019-01-23T14:48:02.528Z,115.85
2019-01-23T14:50:40.084Z,125.02
2019-01-23T14:53:16.738Z,93.27
2019-01-23T14:55:54.606Z,88.67
2019-01-23T14:58:31.486Z,136.47
2019-01-23T15:01:08.239Z,163.92
2019-01-23T15:03:45.290Z,110.52
2019-01-23T15:06:23.018Z,115.10
2019-01-23T15:09:00.182Z,88.03
2019-01-23T15:11:37.321Z,85.20
2019-01-23T15:14:14.290Z,91.75
2019-01-23T15:16:51.346Z,88.45
2019-01-23T15:19:28.101Z,93.65
2019-01-23T15:22:04.978Z,95.17
2019-01-23T15:24:41.855Z,99.15
2019-01-23T15:27:18.553Z,115.67
2019-01-23T15:29:55.414Z,99.17
2019-01-23T15:32:33.936Z,72.27
2019-01-23T15:39:00.917Z,79.62
2019-01-23T15:41:39.227Z,89.05
2019-01-23T15:44:13.916Z,77.40
2019-01-23T15:46:46.587Z,77.60
2019-01-23T15:49:19.115Z,83.20
2019-01-23T15:51:51.971Z,77.10
2019-01-23T15:54:25.138Z,78.10
2019-01-23T15:56:58.001Z,71.12
2019-01-23T15:59:30.648Z,82.50
2019-01-23T16:02:03.556Z,75.15
2019-01-23T16:04:36.302Z,72.37
2019-01-23T16:07:08.871Z,74.75
2019-01-23T16:09:41.534Z,76.97
2019-01-23T16:12:13.957Z,75.45
2019-01-23T16:14:46.718Z,73.28
2019-01-23T16:17:19.331Z,64.15
2019-01-23T16:19:51.856Z,72.08
2019-01-23T16:22:24.325Z,61.80
2019-01-23T16:24:57.143Z,59.58
2019-01-23T16:27:32.543Z,70.00
2019-01-23T16:30:14.688Z,66.90
2019-01-23T16:32:47.339Z,64.47
2019-01-23T16:35:20.140Z,68.30
2019-01-23T16:37:52.683Z,59.80
2019-01-23T16:40:25.284Z,62.67
2019-01-23T16:42:57.817Z,64.60
2019-01-23T16:45:30.543Z,63.65
2019-01-23T16:48:03.359Z,60.38
2019-01-23T16:50:36.692Z,60.17
2019-01-23T16:53:09.495Z,65.55
2019-01-23T16:55:42.249Z,62.73
2019-01-23T16:58:15.188Z,66.37
2019-01-23T17:00:47.913Z,73.87
2019-01-23T17:03:20.795Z,69.92
2019-01-23T17:05:53.301Z,63.48
2019-01-23T17:08:26.078Z,70.08
2019-01-23T17:10:58.574Z,63.58
2019-01-23T17:13:31.284Z,73.57
2019-01-23T17:16:04.032Z,69.15
2019-01-23T17:18:36.493Z,69.35
2019-01-23T17:21:09.155Z,75.15
2019-01-23T17:23:41.893Z,72.05
2019-01-23T17:26:15.724Z,66.33
2019-01-23T17:28:48.513Z,68.83
2019-01-23T17:31:21.746Z,67.25
2019-01-23T17:33:55.092Z,72.53
2019-01-23T17:36:27.905Z,80.80
2019-01-23T17:39:00.656Z,75.60
2019-01-23T17:41:33.407Z,61.42
2019-01-23T17:44:06.332Z,72.47
2019-01-23T17:46:39.790Z,68.62
2019-01-23T17:49:12.841Z,73.02
2019-01-23T17:51:46.024Z,65.75
2019-01-23T17:54:19.105Z,73.02
2019-01-23T17:56:51.740Z,58.13
2019-01-23T17:59:24.271Z,69.50
2019-01-23T18:01:56.975Z,63.20
2019-01-23T18:04:29.687Z,58.60
2019-01-23T18:07:02.425Z,66.02
2019-01-23T18:09:36.061Z,64.42
2019-01-23T18:12:08.790Z,59.40
2019-01-23T18:14:41.467Z,65.62
2019-01-23T18:17:14.204Z,67.67
2019-01-23T18:19:46.783Z,69.25
2019-01-23T18:22:20.227Z,74.92
2019-01-23T18:24:52.729Z,82.05
2019-01-23T18:27:25.420Z,73.17
2019-01-23T18:29:58.426Z,66.22
2019-01-23T18:32:30.949Z,72.90
2019-01-23T18:35:18.316Z,59.48
2019-01-23T18:38:20.079Z,64.80
2019-01-23T18:41:22.969Z,68.47
2019-01-23T18:44:05.131Z,68.50
2019-01-23T18:47:10.219Z,59.80
2019-01-23T18:49:48.119Z,70.37
2019-01-23T18:52:20.792Z,65.75
2019-01-23T18:54:53.488Z,63.42
2019-01-23T18:57:32.472Z,59.53
2019-01-23T19:00:10.281Z,56.10
2019-01-23T19:02:42.993Z,59.05
2019-01-23T19:05:17.935Z,57.20
2019-01-23T19:07:50.503Z,72.40
2019-01-23T19:10:22.944Z,62.03
2019-01-23T19:12:55.613Z,58.17
2019-01-23T19:15:28.091Z,64.35
2019-01-23T19:18:00.716Z,61.37
2019-01-23T19:20:33.311Z,73.62
2019-01-23T19:23:07.774Z,69.77
2019-01-23T19:25:40.847Z,62.23
2019-01-23T19:28:13.545Z,71.60
2019-01-23T19:30:46.228Z,62.80
2019-01-23T19:33:18.733Z,60.05
2019-01-23T19:35:52.429Z,62.40
2019-01-23T19:38:24.857Z,74.90
2019-01-23T19:40:57.582Z,68.57
2019-01-23T19:43:30.461Z,64.82
2019-01-23T19:46:02.932Z,63.28
2019-01-23T19:48:35.761Z,66.00
2019-01-23T19:51:08.913Z,67.55
2019-01-23T19:53:41.686Z,59.90
2019-01-23T19:56:14.257Z,57.33
2019-01-23T19:58:46.942Z,58.78
2019-01-23T20:01:19.520Z,63.33
2019-01-23T20:03:52.108Z,61.02
2019-01-23T20:06:24.785Z,65.52
2019-01-23T20:08:57.267Z,60.73
2019-01-23T20:11:30.234Z,53.83
2019-01-23T20:14:03.228Z,60.30
2019-01-23T20:16:35.812Z,67.78
2019-01-23T20:19:09.301Z,63.30
2019-01-23T20:21:41.884Z,60.80
2019-01-23T20:24:14.655Z,65.08
2019-01-23T20:26:47.348Z,76.57
2019-01-23T20:29:20.055Z,126.30
2019-01-23T20:31:53.937Z,95.85
2019-01-23T20:34:26.610Z,107.90
2019-01-23T20:36:59.587Z,93.15
2019-01-23T20:39:32.271Z,137.32
2019-01-23T20:42:04.945Z,126.10
2019-01-23T20:44:37.438Z,113.52
2019-01-23T20:47:10.113Z,87.10
2019-01-23T20:49:42.786Z,109.27
2019-01-23T20:52:15.357Z,103.20
2019-01-23T20:54:47.838Z,67.05
2019-01-23T20:57:20.734Z,78.35
2019-01-23T20:59:53.193Z,89.40
2019-01-23T21:02:25.956Z,69.97
2019-01-23T21:04:58.467Z,73.50
2019-01-23T21:07:31.147Z,63.98
2019-01-23T21:10:10.997Z,74.82
2019-01-23T21:12:43.769Z,68.60
2019-01-23T21:15:20.496Z,66.33
2019-01-23T21:17:53.236Z,72.80
2019-01-23T21:20:27.430Z,58.50
2019-01-23T21:23:00.023Z,100.20
2019-01-23T21:25:32.377Z,63.02
2019-01-23T21:28:05.160Z,62.20
2019-01-23T21:30:38.663Z,65.17
2019-01-23T21:33:12.533Z,65.32
2019-01-23T21:35:45.253Z,56.10
2019-01-23T21:38:17.731Z,63.28
2019-01-23T21:40:51.528Z,58.20
2019-01-23T21:43:24.523Z,59.80
2019-01-23T21:45:57.613Z,58.90
2019-01-23T21:48:30.083Z,54.63
2019-01-23T21:51:02.760Z,60.80
2019-01-23T21:53:36.362Z,60.12
2019-01-23T21:56:09.037Z,58.02
2019-01-23T21:58:41.625Z,54.18
2019-01-23T22:01:14.302Z,57.35
2019-01-23T22:03:49.375Z,52.65
2019-01-23T22:06:21.614Z,58.45
2019-01-23T22:08:54.280Z,66.00
2019-01-23T22:11:28.301Z,60.65
2019-01-23T22:14:01.070Z,56.98
2019-01-23T22:16:33.753Z,57.90
2019-01-23T22:19:06.441Z,58.30
2019-01-23T22:21:39.114Z,62.08
2019-01-23T22:24:11.693Z,62.33
2019-01-23T22:26:44.367Z,51.33
2019-01-23T22:29:16.949Z,51.58
2019-01-23T22:31:49.603Z,58.68
2019-01-23T22:34:23.435Z,50.73
2019-01-23T22:36:57.078Z,56.73
2019-01-23T22:39:29.920Z,61.15
2019-01-23T22:42:02.513Z,61.48
2019-01-23T22:44:35.391Z,58.45
2019-01-23T22:47:08.469Z,56.70
2019-01-23T22:49:41.143Z,59.03
2019-01-23T22:52:13.742Z,47.48
2019-01-23T22:54:46.513Z,65.10
2019-01-23T22:57:18.979Z,62.85
2019-01-23T22:59:51.768Z,59.30
2019-01-23T23:02:24.762Z,65.92
2019-01-23T23:04:57.441Z,66.90
2019-01-23T23:07:30.020Z,55.12
2019-01-23T23:10:07.406Z,65.28
2019-01-23T23:12:40.078Z,67.82
2019-01-23T23:15:12.887Z,70.37
2019-01-23T23:17:45.432Z,62.10
2019-01-23T23:20:17.911Z,69.45
2019-01-23T23:22:50.498Z,75.97
2019-01-23T23:25:23.279Z,63.20
2019-01-23T23:27:55.957Z,72.58
2019-01-23T23:30:28.790Z,60.83
2019-01-23T23:33:01.411Z,62.35
2019-01-23T23:35:34.095Z,59.40
2019-01-23T23:38:06.562Z,57.53
2019-01-23T23:40:39.346Z,53.83
2019-01-23T23:43:11.926Z,57.10
2019-01-23T23:45:44.507Z,61.98
2019-01-23T23:48:17.296Z,53.28
2019-01-23T23:50:50.266Z,54.35
2019-01-23T23:53:22.847Z,57.60
2019-01-23T23:55:55.840Z,54.30
2019-01-23T23:58:28.923Z,61.33
